25 Max
16 km/h
8 Mini

LFMY 242230Z AUTO 09007KT CAVOK 12/07 Q1014

TAF LFMY 241400Z 2415/2515 18015G25KT 9999 SCT030 TEMPO 2419/2507 12015KT